Time;durP1;ratioP1;P1;durP2;ratioP2;P2;SDS_P1;SDS_P2;PMS_P1;PMS_P2;Temp;Humidity;BMP_temperature;BMP_pressure;BME280_temperature;BME280_humidity;BME280_pressure;Samples;Min_cycle;Max_cycle;Signal;HPM_P1;HPM_P2
2023/09/23 00:01:14;;;;;;;18.93;18.03;;;;;;;;;;5040992;28;20430;-85
2023/09/23 00:03:41;;;;;;;19.10;18.20;;;;;;;;;;5027811;28;20450;-85
2023/09/23 00:06:10;;;;;;;19.90;18.80;;;;;;;;;;5021344;28;20441;-85
2023/09/23 00:08:37;;;;;;;19.50;18.40;;;;;;;;;;5022083;28;20419;-84
2023/09/23 00:11:04;;;;;;;20.30;19.30;;;;;;;;;;5021660;28;20434;-85
2023/09/23 00:13:32;;;;;;;19.50;18.50;;;;;;;;;;5021900;28;20470;-84
2023/09/23 00:15:59;;;;;;;20.00;18.93;;;;;;;;;;5022949;28;20483;-85
2023/09/23 00:18:26;;;;;;;20.57;19.40;;;;;;;;;;5041014;28;20514;-84
2023/09/23 00:20:54;;;;;;;19.53;18.53;;;;;;;;;;5039576;28;20444;-86
2023/09/23 00:23:23;;;;;;;20.23;19.07;;;;;;;;;;5044637;28;20473;-85
2023/09/23 00:25:51;;;;;;;21.97;20.47;;;;;;;;;;5044649;28;20437;-85
2023/09/23 00:28:20;;;;;;;21.90;20.60;;;;;;;;;;5045053;28;20463;-85
2023/09/23 00:30:47;;;;;;;23.80;22.30;;;;;;;;;;5045252;28;20443;-86
2023/09/23 00:33:16;;;;;;;22.40;21.00;;;;;;;;;;5044330;28;20485;-85
2023/09/23 00:35:44;;;;;;;25.03;23.23;;;;;;;;;;5045157;28;20431;-85
2023/09/23 00:38:12;;;;;;;26.43;24.20;;;;;;;;;;5045133;28;20538;-85
2023/09/23 00:40:41;;;;;;;38.67;34.87;;;;;;;;;;5045167;28;20955;-85
2023/09/23 00:43:13;;;;;;;73.10;58.47;;;;;;;;;;5044735;28;21147;-85
2023/09/23 00:45:46;;;;;;;146.20;105.30;;;;;;;;;;5044631;28;20449;-86
2023/09/23 00:48:18;;;;;;;160.37;138.93;;;;;;;;;;5037767;28;20430;-85
2023/09/23 00:50:46;;;;;;;70.03;62.80;;;;;;;;;;5025267;28;20411;-85
2023/09/23 00:53:14;;;;;;;58.13;52.00;;;;;;;;;;5024129;28;20503;-84
2023/09/23 00:55:51;;;;;;;142.50;127.00;;;;;;;;;;5024241;28;20423;-86
2023/09/23 00:58:20;;;;;;;91.10;79.43;;;;;;;;;;5024844;28;20454;-85
2023/09/23 01:00:48;;;;;;;72.17;60.80;;;;;;;;;;5024694;28;20446;-85
2023/09/23 01:03:15;;;;;;;38.00;34.60;;;;;;;;;;5024790;28;20451;-86
2023/09/23 01:05:43;;;;;;;34.33;31.50;;;;;;;;;;5024422;28;20475;-86
2023/09/23 01:08:12;;;;;;;29.00;26.40;;;;;;;;;;5024384;28;20428;-85
2023/09/23 01:10:39;;;;;;;25.23;23.40;;;;;;;;;;5024467;28;20917;-85
2023/09/23 01:13:09;;;;;;;22.60;21.20;;;;;;;;;;5024921;28;20443;-85
2023/09/23 01:15:46;;;;;;;24.23;22.60;;;;;;;;;;5024904;28;20427;-86
2023/09/23 01:18:14;;;;;;;24.60;23.10;;;;;;;;;;5024829;28;20481;-85
2023/09/23 01:20:42;;;;;;;25.73;24.03;;;;;;;;;;5025108;28;20477;-85
2023/09/23 01:23:11;;;;;;;23.60;22.00;;;;;;;;;;5024854;28;20483;-85
2023/09/23 01:25:38;;;;;;;24.03;22.47;;;;;;;;;;5025055;28;20427;-86
2023/09/23 01:28:11;;;;;;;23.10;21.70;;;;;;;;;;5024478;28;21253;-86
2023/09/23 01:30:39;;;;;;;21.93;20.60;;;;;;;;;;5024575;28;20451;-86
2023/09/23 01:33:07;;;;;;;23.57;22.17;;;;;;;;;;5025193;28;20513;-85
2023/09/23 01:35:35;;;;;;;24.03;22.33;;;;;;;;;;5024422;28;20947;-85
2023/09/23 01:38:03;;;;;;;24.13;22.53;;;;;;;;;;5023457;28;20463;-86
2023/09/23 01:40:32;;;;;;;25.50;23.90;;;;;;;;;;5024919;28;20419;-85
2023/09/23 01:43:00;;;;;;;23.57;22.07;;;;;;;;;;5024843;28;20443;-85
2023/09/23 01:45:27;;;;;;;25.47;23.43;;;;;;;;;;5024180;28;20416;-85
2023/09/23 01:47:56;;;;;;;24.53;22.73;;;;;;;;;;5022058;28;20456;-85
2023/09/23 01:50:23;;;;;;;27.10;25.30;;;;;;;;;;5024144;28;20434;-85
2023/09/23 01:52:51;;;;;;;25.60;23.80;;;;;;;;;;5024807;28;20440;-85
2023/09/23 01:55:18;;;;;;;27.93;25.90;;;;;;;;;;5025046;28;20415;-85
2023/09/23 01:57:48;;;;;;;27.73;25.73;;;;;;;;;;5023831;28;20484;-85
2023/09/23 02:00:22;;;;;;;27.53;25.63;;;;;;;;;;5024039;28;20481;-85
2023/09/23 02:02:49;;;;;;;28.47;26.43;;;;;;;;;;5024544;28;20447;-85
2023/09/23 02:05:18;;;;;;;32.07;29.87;;;;;;;;;;5023799;28;20482;-85
2023/09/23 02:07:46;;;;;;;32.43;29.77;;;;;;;;;;5023594;28;20445;-86
2023/09/23 02:10:15;;;;;;;34.90;31.90;;;;;;;;;;5023736;28;20431;-85
2023/09/23 02:12:42;;;;;;;32.03;29.50;;;;;;;;;;5023411;28;20447;-85
2023/09/23 02:15:15;;;;;;;33.87;31.03;;;;;;;;;;5023129;28;20886;-85
2023/09/23 02:17:43;;;;;;;32.67;30.17;;;;;;;;;;5022989;28;20449;-86
2023/09/23 02:20:17;;;;;;;37.57;34.47;;;;;;;;;;5022853;28;20873;-85
2023/09/23 02:22:45;;;;;;;37.97;34.77;;;;;;;;;;5022071;28;20496;-86
2023/09/23 02:25:13;;;;;;;38.20;34.90;;;;;;;;;;5042842;28;20440;-86
2023/09/23 02:27:41;;;;;;;39.33;36.13;;;;;;;;;;5041349;28;20460;-85
2023/09/23 02:30:09;;;;;;;35.03;32.13;;;;;;;;;;5042010;28;20430;-86
2023/09/23 02:32:40;;;;;;;34.83;31.90;;;;;;;;;;5042601;28;20451;-86
2023/09/23 02:35:09;;;;;;;34.27;31.43;;;;;;;;;;5042443;28;20418;-86
2023/09/23 02:37:36;;;;;;;35.80;32.90;;;;;;;;;;5041545;28;20496;-85
2023/09/23 02:40:05;;;;;;;28.93;26.80;;;;;;;;;;5041859;28;20423;-86
2023/09/23 02:42:32;;;;;;;33.43;30.70;;;;;;;;;;5041537;28;20491;-86
2023/09/23 02:45:02;;;;;;;34.83;31.60;;;;;;;;;;5040824;28;20425;-84
2023/09/23 02:47:30;;;;;;;36.53;33.53;;;;;;;;;;5040596;28;20406;-86
2023/09/23 02:49:58;;;;;;;34.60;31.63;;;;;;;;;;5041353;28;20424;-86
2023/09/23 02:52:26;;;;;;;32.80;30.00;;;;;;;;;;5041266;28;20446;-86
2023/09/23 02:54:54;;;;;;;36.53;33.33;;;;;;;;;;5040986;28;20880;-85
2023/09/23 02:57:21;;;;;;;39.80;36.50;;;;;;;;;;5041288;28;20474;-86
2023/09/23 02:59:56;;;;;;;35.80;32.90;;;;;;;;;;5041059;28;20454;-86
2023/09/23 03:02:27;;;;;;;37.13;33.93;;;;;;;;;;5041882;28;20471;-86
2023/09/23 03:04:58;;;;;;;36.60;33.30;;;;;;;;;;5041197;28;20455;-86
2023/09/23 03:07:32;;;;;;;29.60;27.30;;;;;;;;;;5040424;28;20414;-86
2023/09/23 03:10:01;;;;;;;36.90;33.87;;;;;;;;;;5041856;28;20409;-86
2023/09/23 03:12:29;;;;;;;30.87;28.43;;;;;;;;;;5040225;28;20438;-85
2023/09/23 03:14:56;;;;;;;34.53;31.63;;;;;;;;;;5040726;28;20445;-86
2023/09/23 03:17:23;;;;;;;32.37;29.77;;;;;;;;;;5040815;28;20415;-86
2023/09/23 03:19:51;;;;;;;32.03;29.43;;;;;;;;;;5040633;28;21034;-85
2023/09/23 03:22:20;;;;;;;35.00;32.20;;;;;;;;;;5040868;28;20533;-86
2023/09/23 03:24:48;;;;;;;33.63;30.60;;;;;;;;;;5040512;28;20983;-86
2023/09/23 03:27:16;;;;;;;34.27;31.47;;;;;;;;;;5039976;28;20456;-87
2023/09/23 03:29:43;;;;;;;33.27;30.57;;;;;;;;;;5040810;28;20415;-86
2023/09/23 03:32:10;;;;;;;32.53;30.00;;;;;;;;;;5040656;28;20987;-86
2023/09/23 03:34:37;;;;;;;33.40;30.70;;;;;;;;;;5026556;28;20479;-86
2023/09/23 03:37:05;;;;;;;33.43;30.63;;;;;;;;;;5020165;28;20422;-86
2023/09/23 03:39:33;;;;;;;33.87;31.03;;;;;;;;;;5021128;28;20488;-86
2023/09/23 03:42:01;;;;;;;34.63;32.00;;;;;;;;;;5021493;28;20439;-86
2023/09/23 03:44:28;;;;;;;32.87;30.17;;;;;;;;;;5020435;28;20456;-85
2023/09/23 03:46:55;;;;;;;33.97;31.07;;;;;;;;;;5020205;28;20452;-85
2023/09/23 03:49:23;;;;;;;33.07;30.57;;;;;;;;;;5019388;28;20423;-86
2023/09/23 03:51:50;;;;;;;32.70;29.93;;;;;;;;;;5020550;28;20395;-85
2023/09/23 03:54:17;;;;;;;33.87;31.20;;;;;;;;;;5020318;28;20427;-86
2023/09/23 03:56:45;;;;;;;33.90;31.10;;;;;;;;;;5019085;28;20442;-86
2023/09/23 03:59:13;;;;;;;33.33;30.70;;;;;;;;;;5020516;28;20467;-85
2023/09/23 04:01:40;;;;;;;31.40;28.80;;;;;;;;;;5020318;28;20416;-86
2023/09/23 04:04:10;;;;;;;31.23;28.67;;;;;;;;;;5020394;28;20459;-85
2023/09/23 04:06:38;;;;;;;34.63;31.60;;;;;;;;;;5020488;28;20437;-85
2023/09/23 04:09:07;;;;;;;34.30;31.40;;;;;;;;;;5020093;28;20422;-85
2023/09/23 04:11:35;;;;;;;33.77;30.97;;;;;;;;;;5021104;28;20463;-85
2023/09/23 04:14:02;;;;;;;32.50;29.80;;;;;;;;;;5020861;28;20450;-86
2023/09/23 04:16:32;;;;;;;32.67;30.10;;;;;;;;;;5031643;28;20494;-86
2023/09/23 04:18:59;;;;;;;30.30;27.80;;;;;;;;;;5040691;28;20545;-85
2023/09/23 04:21:27;;;;;;;32.63;29.90;;;;;;;;;;5029310;28;20456;-86
2023/09/23 04:23:54;;;;;;;29.77;27.43;;;;;;;;;;5020402;28;20821;-85
2023/09/23 04:26:21;;;;;;;32.10;29.20;;;;;;;;;;5019994;28;20420;-85
2023/09/23 04:28:51;;;;;;;30.53;28.03;;;;;;;;;;5019873;28;20427;-86
2023/09/23 04:31:19;;;;;;;31.00;28.70;;;;;;;;;;5019434;28;20951;-86
2023/09/23 04:33:48;;;;;;;30.73;28.13;;;;;;;;;;5019006;28;20459;-86
2023/09/23 04:36:15;;;;;;;30.23;27.93;;;;;;;;;;5019370;28;20452;-86
2023/09/23 04:38:43;;;;;;;29.07;26.87;;;;;;;;;;5018412;28;20459;-86
2023/09/23 04:41:10;;;;;;;29.60;27.30;;;;;;;;;;5019414;28;20449;-86
2023/09/23 04:43:41;;;;;;;30.17;27.73;;;;;;;;;;5019647;28;20547;-86
2023/09/23 04:46:08;;;;;;;30.27;27.87;;;;;;;;;;5019212;28;21023;-86
2023/09/23 04:48:35;;;;;;;30.27;28.10;;;;;;;;;;5019462;28;20423;-86
2023/09/23 04:51:05;;;;;;;29.33;27.07;;;;;;;;;;5019428;28;20423;-86
2023/09/23 04:53:33;;;;;;;29.13;26.80;;;;;;;;;;5019100;28;20461;-85
2023/09/23 04:56:00;;;;;;;27.53;25.40;;;;;;;;;;5019417;28;20457;-86
2023/09/23 04:58:27;;;;;;;26.67;24.77;;;;;;;;;;5019454;28;20434;-86
2023/09/23 05:00:54;;;;;;;27.30;25.40;;;;;;;;;;5019628;28;20506;-85
2023/09/23 05:03:23;;;;;;;27.43;25.40;;;;;;;;;;5018890;28;20487;-85
2023/09/23 05:05:50;;;;;;;25.77;24.00;;;;;;;;;;5018700;28;20535;-86
2023/09/23 05:08:19;;;;;;;25.53;23.53;;;;;;;;;;5021566;28;20434;-85
2023/09/23 05:10:46;;;;;;;26.53;24.63;;;;;;;;;;5023490;28;20426;-85
2023/09/23 05:13:17;;;;;;;26.20;24.40;;;;;;;;;;5023594;28;20434;-85
2023/09/23 05:15:44;;;;;;;24.70;22.80;;;;;;;;;;5023162;28;20423;-86
2023/09/23 05:18:11;;;;;;;26.23;23.83;;;;;;;;;;5024184;28;20434;-86
2023/09/23 05:20:38;;;;;;;24.97;23.30;;;;;;;;;;5023790;28;20458;-85
2023/09/23 05:23:06;;;;;;;24.40;22.60;;;;;;;;;;5023698;28;20435;-86
2023/09/23 05:25:35;;;;;;;24.00;22.47;;;;;;;;;;5024148;28;20445;-86
2023/09/23 05:28:04;;;;;;;25.20;23.40;;;;;;;;;;5022872;28;20435;-85
2023/09/23 05:30:31;;;;;;;24.20;22.60;;;;;;;;;;5023481;28;20411;-86
2023/09/23 05:32:58;;;;;;;23.87;22.23;;;;;;;;;;5023163;28;20575;-86
2023/09/23 05:35:27;;;;;;;24.33;22.80;;;;;;;;;;5023066;28;20432;-85
2023/09/23 05:37:54;;;;;;;24.03;22.43;;;;;;;;;;5022719;28;20439;-85
2023/09/23 05:40:27;;;;;;;24.47;22.60;;;;;;;;;;5023096;28;20474;-86
2023/09/23 05:42:55;;;;;;;24.40;22.80;;;;;;;;;;5023417;28;20960;-85
2023/09/23 05:45:24;;;;;;;24.40;22.80;;;;;;;;;;5024183;28;20416;-86
2023/09/23 05:47:52;;;;;;;24.33;22.60;;;;;;;;;;5022810;28;20506;-86
2023/09/23 05:50:20;;;;;;;24.40;22.80;;;;;;;;;;5023784;28;20456;-86
2023/09/23 05:52:48;;;;;;;24.83;23.10;;;;;;;;;;5023678;28;20502;-85
2023/09/23 05:55:15;;;;;;;23.60;22.07;;;;;;;;;;5023397;28;20439;-86
2023/09/23 05:57:43;;;;;;;23.60;22.10;;;;;;;;;;5022862;28;20441;-86
2023/09/23 06:00:15;;;;;;;24.93;23.23;;;;;;;;;;5022905;28;20546;-85
2023/09/23 06:02:44;;;;;;;24.67;23.03;;;;;;;;;;5041568;28;20456;-86
2023/09/23 06:05:11;;;;;;;24.53;22.93;;;;;;;;;;5043065;28;20431;-85
2023/09/23 06:07:38;;;;;;;23.73;22.23;;;;;;;;;;5044224;28;20458;-85
2023/09/23 06:10:06;;;;;;;27.90;25.90;;;;;;;;;;5044228;28;20414;-86
2023/09/23 06:12:33;;;;;;;25.17;23.67;;;;;;;;;;5041348;28;20996;-86
2023/09/23 06:15:01;;;;;;;24.97;23.07;;;;;;;;;;5031084;28;20476;-86
2023/09/23 06:17:29;;;;;;;26.10;24.10;;;;;;;;;;5019034;28;20431;-86
2023/09/23 06:19:57;;;;;;;25.60;23.80;;;;;;;;;;5019850;28;20491;-86
2023/09/23 06:22:24;;;;;;;24.63;23.03;;;;;;;;;;5021433;28;20446;-86
2023/09/23 06:24:51;;;;;;;23.90;22.33;;;;;;;;;;5023639;28;20456;-85
2023/09/23 06:27:19;;;;;;;24.53;22.93;;;;;;;;;;5022577;28;20464;-86
2023/09/23 06:29:47;;;;;;;26.23;24.30;;;;;;;;;;5024026;28;20448;-85
2023/09/23 06:32:14;;;;;;;23.90;22.30;;;;;;;;;;5029371;28;20477;-86
2023/09/23 06:34:42;;;;;;;24.47;22.77;;;;;;;;;;5041808;28;20437;-86
2023/09/23 06:37:09;;;;;;;24.23;22.30;;;;;;;;;;5041212;28;20451;-86
2023/09/23 06:39:36;;;;;;;25.77;23.97;;;;;;;;;;5041449;28;20479;-86
2023/09/23 06:42:03;;;;;;;23.43;21.93;;;;;;;;;;5041718;28;20445;-86
2023/09/23 06:44:30;;;;;;;23.43;21.67;;;;;;;;;;5042929;28;20552;-84
2023/09/23 06:46:57;;;;;;;23.90;22.10;;;;;;;;;;5040694;28;20460;-84
2023/09/23 06:49:26;;;;;;;24.40;22.70;;;;;;;;;;5031720;28;20535;-86
2023/09/23 06:51:54;;;;;;;23.40;21.90;;;;;;;;;;5021499;28;20862;-86
2023/09/23 06:54:21;;;;;;;24.30;22.43;;;;;;;;;;5020708;28;20797;-86
2023/09/23 06:56:48;;;;;;;23.70;21.70;;;;;;;;;;5021482;28;20441;-85
2023/09/23 06:59:15;;;;;;;22.83;21.00;;;;;;;;;;5022718;28;20463;-85
2023/09/23 07:01:42;;;;;;;22.80;21.20;;;;;;;;;;5022617;28;20430;-85
2023/09/23 07:04:09;;;;;;;22.73;21.23;;;;;;;;;;5022495;28;20418;-85
2023/09/23 07:06:36;;;;;;;23.67;22.00;;;;;;;;;;5025111;28;20795;-85
2023/09/23 07:09:05;;;;;;;21.30;19.80;;;;;;;;;;5024613;28;20467;-85
2023/09/23 07:11:32;;;;;;;22.53;21.10;;;;;;;;;;5029716;28;20445;-85
2023/09/23 07:14:00;;;;;;;22.93;21.43;;;;;;;;;;5040054;28;20450;-82
2023/09/23 07:16:27;;;;;;;22.33;20.77;;;;;;;;;;5028505;28;20854;-85
2023/09/23 07:18:54;;;;;;;20.77;19.57;;;;;;;;;;5036842;28;20441;-85
2023/09/23 07:21:21;;;;;;;23.70;22.03;;;;;;;;;;5025145;28;20418;-85
2023/09/23 07:23:49;;;;;;;22.50;20.97;;;;;;;;;;5033492;28;20450;-85
2023/09/23 07:26:21;;;;;;;23.67;22.07;;;;;;;;;;5023069;28;20419;-84
2023/09/23 07:28:50;;;;;;;22.07;20.67;;;;;;;;;;5023295;28;21047;-85
2023/09/23 07:31:17;;;;;;;22.60;21.00;;;;;;;;;;5024230;28;20455;-85
2023/09/23 07:33:44;;;;;;;23.40;21.70;;;;;;;;;;5023404;28;20996;-85
2023/09/23 07:36:11;;;;;;;23.97;22.20;;;;;;;;;;5023431;28;20960;-85
2023/09/23 07:38:39;;;;;;;22.30;20.80;;;;;;;;;;5023690;28;20411;-85
2023/09/23 07:41:06;;;;;;;22.83;21.10;;;;;;;;;;5024044;28;20489;-85
2023/09/23 07:43:34;;;;;;;23.50;22.00;;;;;;;;;;5024153;28;20829;-85
2023/09/23 07:46:01;;;;;;;23.10;21.60;;;;;;;;;;5023917;28;20440;-85
2023/09/23 07:48:28;;;;;;;20.73;19.53;;;;;;;;;;5024329;28;20442;-85
2023/09/23 07:50:55;;;;;;;25.67;23.67;;;;;;;;;;5023807;28;20422;-85
2023/09/23 07:53:22;;;;;;;23.37;21.80;;;;;;;;;;5023915;28;20439;-85
2023/09/23 07:55:50;;;;;;;23.40;21.90;;;;;;;;;;5033552;28;20464;-85
2023/09/23 07:58:17;;;;;;;23.27;21.67;;;;;;;;;;5028438;28;20431;-85
2023/09/23 08:00:45;;;;;;;23.77;22.27;;;;;;;;;;5021972;28;20485;-85
2023/09/23 08:03:12;;;;;;;23.80;22.30;;;;;;;;;;5022140;28;20484;-85
2023/09/23 08:05:40;;;;;;;24.47;22.33;;;;;;;;;;5021037;28;20430;-85
2023/09/23 08:08:07;;;;;;;23.40;21.70;;;;;;;;;;5021380;28;20466;-85
2023/09/23 08:10:34;;;;;;;23.53;22.03;;;;;;;;;;5021863;28;20467;-85
2023/09/23 08:13:02;;;;;;;23.10;21.40;;;;;;;;;;5021870;28;20455;-85
2023/09/23 08:15:29;;;;;;;23.47;21.87;;;;;;;;;;5027928;28;20558;-85
2023/09/23 08:17:58;;;;;;;21.30;19.80;;;;;;;;;;5061040;28;20496;-85
2023/09/23 08:20:26;;;;;;;22.10;20.63;;;;;;;;;;5061388;28;20481;-84
2023/09/23 08:22:53;;;;;;;20.17;18.87;;;;;;;;;;5061804;28;20576;-84
2023/09/23 08:25:20;;;;;;;23.20;21.40;;;;;;;;;;5061894;28;20477;-85
2023/09/23 08:27:47;;;;;;;23.10;21.70;;;;;;;;;;5060485;28;20496;-85
2023/09/23 08:30:16;;;;;;;23.13;21.30;;;;;;;;;;5060485;28;20990;-84
2023/09/23 08:32:43;;;;;;;21.77;20.10;;;;;;;;;;5061066;28;20433;-83
2023/09/23 08:35:12;;;;;;;23.90;22.40;;;;;;;;;;5061489;28;20425;-85
2023/09/23 08:37:39;;;;;;;23.97;22.37;;;;;;;;;;5060728;28;20464;-85
2023/09/23 08:40:10;;;;;;;24.10;22.37;;;;;;;;;;5061171;28;20490;-83
2023/09/23 08:42:37;;;;;;;23.50;22.10;;;;;;;;;;5043854;28;20492;-85
2023/09/23 08:45:09;;;;;;;22.97;21.37;;;;;;;;;;5045555;28;20447;-84
2023/09/23 08:47:37;;;;;;;23.73;22.00;;;;;;;;;;5044830;28;20863;-84
2023/09/23 08:50:06;;;;;;;21.70;20.20;;;;;;;;;;5045248;28;20480;-85
2023/09/23 08:52:35;;;;;;;23.83;22.30;;;;;;;;;;5045281;28;20446;-84
2023/09/23 08:55:03;;;;;;;24.03;22.33;;;;;;;;;;5045574;28;20429;-84
2023/09/23 08:57:31;;;;;;;23.47;22.03;;;;;;;;;;5044512;28;20414;-84
2023/09/23 08:59:58;;;;;;;23.57;22.03;;;;;;;;;;5044348;28;20533;-84
2023/09/23 09:02:25;;;;;;;26.73;24.70;;;;;;;;;;5054973;28;20455;-84
2023/09/23 09:04:54;;;;;;;22.70;21.30;;;;;;;;;;5064656;28;20442;-84
2023/09/23 09:07:24;;;;;;;23.00;21.40;;;;;;;;;;5063767;28;20844;-83
2023/09/23 09:09:52;;;;;;;22.90;21.30;;;;;;;;;;5064633;28;20440;-85
2023/09/23 09:12:19;;;;;;;24.30;22.70;;;;;;;;;;5064056;28;20463;-84
2023/09/23 09:14:50;;;;;;;22.60;21.27;;;;;;;;;;5064081;28;20454;-84
2023/09/23 09:17:17;;;;;;;22.90;21.60;;;;;;;;;;5064172;28;20402;-84
2023/09/23 09:19:44;;;;;;;23.23;21.83;;;;;;;;;;5064116;28;20439;-84
2023/09/23 09:22:11;;;;;;;21.73;20.53;;;;;;;;;;5064526;28;20445;-84
2023/09/23 09:24:40;;;;;;;21.40;20.10;;;;;;;;;;5064686;28;20418;-85
2023/09/23 09:27:12;;;;;;;22.77;20.60;;;;;;;;;;5064377;28;20452;-84
2023/09/23 09:29:40;;;;;;;21.93;20.73;;;;;;;;;;5065092;28;20558;-84
2023/09/23 09:32:09;;;;;;;22.30;20.80;;;;;;;;;;5064478;28;20449;-85
2023/09/23 09:34:41;;;;;;;22.17;20.87;;;;;;;;;;5064403;28;20462;-84
2023/09/23 09:37:12;;;;;;;21.93;20.23;;;;;;;;;;5064278;28;20880;-85
2023/09/23 09:39:41;;;;;;;21.50;20.30;;;;;;;;;;5064613;28;20507;-85
2023/09/23 09:42:09;;;;;;;22.63;20.87;;;;;;;;;;5064457;28;20430;-85
2023/09/23 09:44:38;;;;;;;22.60;21.30;;;;;;;;;;5063920;28;20425;-84
2023/09/23 09:47:06;;;;;;;21.93;20.50;;;;;;;;;;5063704;28;20432;-84
2023/09/23 09:49:34;;;;;;;23.00;21.33;;;;;;;;;;5063417;28;20442;-79
2023/09/23 09:52:03;;;;;;;21.67;20.20;;;;;;;;;;5058493;28;20462;-84
2023/09/23 09:54:31;;;;;;;22.13;20.50;;;;;;;;;;5026186;28;20735;-85
2023/09/23 09:56:59;;;;;;;21.10;19.53;;;;;;;;;;5030546;28;20461;-85
2023/09/23 09:59:27;;;;;;;22.10;20.50;;;;;;;;;;5031230;28;20945;-83
2023/09/23 10:01:56;;;;;;;22.60;21.30;;;;;;;;;;5044235;28;20972;-85
2023/09/23 10:04:26;;;;;;;21.73;20.33;;;;;;;;;;5038243;28;20473;-84
2023/09/23 10:06:55;;;;;;;21.50;20.20;;;;;;;;;;5024859;28;20432;-85
2023/09/23 10:09:27;;;;;;;23.47;21.37;;;;;;;;;;5023934;28;20460;-82
2023/09/23 10:11:56;;;;;;;22.03;20.57;;;;;;;;;;5024320;28;20428;-86
2023/09/23 10:14:23;;;;;;;22.50;21.00;;;;;;;;;;5024827;28;20466;-84
2023/09/23 10:16:50;;;;;;;19.90;18.70;;;;;;;;;;5023598;28;20445;-85
2023/09/23 10:19:29;;;;;;;22.23;20.70;;;;;;;;;;5024351;28;20419;-84
2023/09/23 10:22:08;;;;;;;23.20;21.73;;;;;;;;;;5024368;28;20454;-85
2023/09/23 10:24:35;;;;;;;22.10;20.40;;;;;;;;;;5025931;28;20872;-85
2023/09/23 10:27:05;;;;;;;22.90;21.50;;;;;;;;;;5025868;28;20435;-85
2023/09/23 10:29:42;;;;;;;23.17;21.77;;;;;;;;;;5029958;28;20484;-85
2023/09/23 10:32:14;;;;;;;23.70;21.90;;;;;;;;;;5035851;28;20467;-85
2023/09/23 10:34:52;;;;;;;22.83;21.43;;;;;;;;;;5043807;28;20467;-85
2023/09/23 10:37:26;;;;;;;23.33;21.83;;;;;;;;;;5044211;28;20425;-85
2023/09/23 10:39:53;;;;;;;22.43;20.70;;;;;;;;;;5044336;28;20830;-85
2023/09/23 10:42:20;;;;;;;22.23;21.03;;;;;;;;;;5041439;28;20487;-85
2023/09/23 10:44:47;;;;;;;22.80;21.40;;;;;;;;;;5040759;28;20448;-85
2023/09/23 10:47:16;;;;;;;22.03;20.93;;;;;;;;;;5055376;28;20437;-85
2023/09/23 10:49:43;;;;;;;23.90;22.33;;;;;;;;;;5028073;28;20450;-85
2023/09/23 10:52:12;;;;;;;23.13;21.73;;;;;;;;;;5027065;28;20458;-85
2023/09/23 10:54:40;;;;;;;22.83;21.43;;;;;;;;;;5021045;28;20432;-85
2023/09/23 10:57:07;;;;;;;21.97;20.63;;;;;;;;;;5025541;28;20484;-84
2023/09/23 10:59:34;;;;;;;22.93;21.43;;;;;;;;;;5031609;28;20830;-85
2023/09/23 11:02:04;;;;;;;23.00;21.37;;;;;;;;;;5041133;28;20480;-84
2023/09/23 11:04:31;;;;;;;22.37;21.10;;;;;;;;;;5033258;28;20434;-85
2023/09/23 11:06:58;;;;;;;22.97;21.37;;;;;;;;;;5035878;28;20461;-85
2023/09/23 11:09:28;;;;;;;22.13;20.77;;;;;;;;;;5031666;28;20671;-84
2023/09/23 11:11:56;;;;;;;22.57;21.30;;;;;;;;;;5043051;28;20419;-85
2023/09/23 11:14:23;;;;;;;21.83;20.57;;;;;;;;;;5042347;28;20437;-85
2023/09/23 11:16:50;;;;;;;22.80;21.50;;;;;;;;;;5041881;28;20435;-86
2023/09/23 11:19:18;;;;;;;22.87;21.47;;;;;;;;;;5041437;28;20399;-84
2023/09/23 11:21:46;;;;;;;22.60;21.33;;;;;;;;;;5039070;28;20516;-83
2023/09/23 11:24:13;;;;;;;22.43;20.93;;;;;;;;;;5046874;28;20535;-80
2023/09/23 11:26:42;;;;;;;21.20;20.03;;;;;;;;;;5052783;28;20466;-78
2023/09/23 11:29:09;;;;;;;22.17;20.97;;;;;;;;;;5052622;28;20456;-78
2023/09/23 11:31:37;;;;;;;23.30;21.87;;;;;;;;;;5053298;28;20939;-79
2023/09/23 11:34:04;;;;;;;23.13;21.53;;;;;;;;;;5053505;28;20499;-79
2023/09/23 11:36:31;;;;;;;23.07;21.70;;;;;;;;;;5054198;28;20428;-86
2023/09/23 11:38:58;;;;;;;22.90;21.60;;;;;;;;;;5036990;28;20463;-87
2023/09/23 11:41:25;;;;;;;22.83;21.47;;;;;;;;;;5034911;28;21006;-86
2023/09/23 11:43:54;;;;;;;22.33;21.17;;;;;;;;;;5043030;28;20445;-82
2023/09/23 11:46:22;;;;;;;22.60;21.30;;;;;;;;;;5037538;28;20946;-83
2023/09/23 11:48:49;;;;;;;22.97;21.67;;;;;;;;;;5034945;28;20433;-85
2023/09/23 11:51:18;;;;;;;22.33;21.03;;;;;;;;;;5033945;28;20453;-82
2023/09/23 11:53:45;;;;;;;23.60;22.00;;;;;;;;;;5031794;28;20472;-87
2023/09/23 11:56:14;;;;;;;22.70;21.40;;;;;;;;;;5034407;28;20468;-87
2023/09/23 11:58:41;;;;;;;22.53;21.33;;;;;;;;;;5035485;28;20430;-85
2023/09/23 12:01:10;;;;;;;23.03;21.70;;;;;;;;;;5034511;28;20474;-82
2023/09/23 12:03:37;;;;;;;22.87;21.63;;;;;;;;;;5034590;28;20464;-81
2023/09/23 12:06:04;;;;;;;23.07;21.40;;;;;;;;;;5034050;28;20447;-80
2023/09/23 12:08:31;;;;;;;22.87;21.57;;;;;;;;;;5036412;28;20440;-84
2023/09/23 12:10:59;;;;;;;21.50;20.30;;;;;;;;;;5039341;28;20426;-78
2023/09/23 12:13:26;;;;;;;21.27;20.17;;;;;;;;;;5032282;28;20486;-83
2023/09/23 12:15:54;;;;;;;21.47;20.20;;;;;;;;;;5018859;28;20435;-86
2023/09/23 12:18:23;;;;;;;22.93;21.43;;;;;;;;;;5028622;28;20843;-86
2023/09/23 12:20:50;;;;;;;22.90;21.33;;;;;;;;;;5041655;28;20434;-86
2023/09/23 12:23:18;;;;;;;22.93;21.67;;;;;;;;;;5043841;28;20511;-86
2023/09/23 12:25:45;;;;;;;22.27;20.97;;;;;;;;;;5041910;28;20479;-87
2023/09/23 12:28:12;;;;;;;22.93;21.63;;;;;;;;;;5042899;28;20433;-85
2023/09/23 12:30:39;;;;;;;22.50;21.07;;;;;;;;;;5042339;28;20439;-86
2023/09/23 12:33:06;;;;;;;23.97;22.57;;;;;;;;;;5042645;28;20461;-86
2023/09/23 12:35:34;;;;;;;24.03;22.43;;;;;;;;;;5042503;28;20406;-86
2023/09/23 12:38:02;;;;;;;23.47;22.17;;;;;;;;;;5042164;28;20455;-84
2023/09/23 12:40:29;;;;;;;23.00;21.73;;;;;;;;;;5043533;28;20418;-84
2023/09/23 12:42:56;;;;;;;22.63;21.33;;;;;;;;;;5043693;28;20491;-84
2023/09/23 12:45:23;;;;;;;23.33;21.73;;;;;;;;;;5042575;28;20476;-84
2023/09/23 12:47:51;;;;;;;23.87;22.30;;;;;;;;;;5038989;28;20465;-84
2023/09/23 12:50:18;;;;;;;23.37;22.10;;;;;;;;;;5043879;28;20482;-84
2023/09/23 12:52:47;;;;;;;23.50;22.10;;;;;;;;;;5043760;28;20471;-84
2023/09/23 12:55:14;;;;;;;22.53;21.27;;;;;;;;;;5043574;28;20462;-84
2023/09/23 12:57:41;;;;;;;22.07;20.77;;;;;;;;;;5043076;28;20458;-83
2023/09/23 13:00:09;;;;;;;23.47;22.07;;;;;;;;;;5043175;28;21289;-84
2023/09/23 13:02:36;;;;;;;22.60;21.27;;;;;;;;;;5043216;28;20474;-84
2023/09/23 13:05:03;;;;;;;22.10;20.90;;;;;;;;;;5043129;28;20454;-84
2023/09/23 13:07:30;;;;;;;22.50;21.10;;;;;;;;;;5042954;28;20467;-84
2023/09/23 13:09:59;;;;;;;23.20;21.70;;;;;;;;;;5042543;28;20467;-84
2023/09/23 13:12:26;;;;;;;23.00;21.67;;;;;;;;;;5042571;28;20437;-84
2023/09/23 13:14:53;;;;;;;23.80;22.20;;;;;;;;;;5043245;28;20417;-85
2023/09/23 13:17:20;;;;;;;23.43;22.23;;;;;;;;;;5040913;28;20410;-80
2023/09/23 13:19:47;;;;;;;21.90;20.60;;;;;;;;;;5034223;28;20471;-81
2023/09/23 13:22:14;;;;;;;22.00;20.70;;;;;;;;;;5035024;28;20462;-80
2023/09/23 13:24:41;;;;;;;22.80;21.50;;;;;;;;;;5036157;28;20445;-81
2023/09/23 13:27:09;;;;;;;23.03;21.63;;;;;;;;;;5034270;28;20422;-78
2023/09/23 13:29:36;;;;;;;22.90;21.60;;;;;;;;;;5034502;28;20941;-79
2023/09/23 13:32:03;;;;;;;22.57;21.30;;;;;;;;;;5035186;28;20475;-80
2023/09/23 13:34:30;;;;;;;22.50;21.10;;;;;;;;;;5036081;28;20463;-79
2023/09/23 13:36:57;;;;;;;22.33;21.13;;;;;;;;;;5034547;28;20456;-79
2023/09/23 13:39:24;;;;;;;22.87;21.67;;;;;;;;;;5035589;28;20439;-80
2023/09/23 13:41:52;;;;;;;23.23;21.80;;;;;;;;;;5035894;28;20548;-81
2023/09/23 13:44:24;;;;;;;23.37;21.80;;;;;;;;;;5036270;28;20426;-81
2023/09/23 13:46:51;;;;;;;22.30;20.90;;;;;;;;;;5035292;28;20462;-80
2023/09/23 13:49:18;;;;;;;23.17;21.87;;;;;;;;;;5035242;28;20443;-80
2023/09/23 13:51:45;;;;;;;22.40;21.10;;;;;;;;;;5036073;28;21054;-80
2023/09/23 13:54:12;;;;;;;23.00;21.70;;;;;;;;;;5036223;28;20524;-79
2023/09/23 13:56:39;;;;;;;23.43;21.87;;;;;;;;;;5036656;28;20784;-82
2023/09/23 13:59:06;;;;;;;22.33;20.83;;;;;;;;;;5038204;28;20405;-87
2023/09/23 14:01:35;;;;;;;22.80;21.30;;;;;;;;;;5038423;28;20880;-79
2023/09/23 14:04:03;;;;;;;23.97;22.50;;;;;;;;;;5037740;28;21229;-80
2023/09/23 14:06:30;;;;;;;22.87;21.47;;;;;;;;;;5037120;28;20438;-80
2023/09/23 14:08:57;;;;;;;23.80;22.40;;;;;;;;;;5035298;28;20446;-80
2023/09/23 14:11:24;;;;;;;23.17;21.70;;;;;;;;;;5034962;28;20531;-77
2023/09/23 14:13:51;;;;;;;23.23;21.83;;;;;;;;;;5036539;28;20446;-81
2023/09/23 14:16:18;;;;;;;23.37;22.07;;;;;;;;;;5035519;28;20432;-80
2023/09/23 14:18:47;;;;;;;23.47;21.97;;;;;;;;;;5035523;28;20455;-82
2023/09/23 14:21:14;;;;;;;23.43;22.03;;;;;;;;;;5036350;28;20437;-83